Time;durP1;ratioP1;P1;durP2;ratioP2;P2;SDS_P1;SDS_P2;PMS_P1;PMS_P2;Temp;Humidity;BMP_temperature;BMP_pressure;BME280_temperature;BME280_humidity;BME280_pressure;Samples;Min_cycle;Max_cycle;Signal;HPM_P1;HPM_P2
2022/12/21 00:04:00;;;;;;;11.60;8.40;;;9.90;99.90;;;;;;7375110;32;20156;-60
2022/12/21 00:08:02;;;;;;;12.40;9.13;;;9.80;99.90;;;;;;7375952;32;20125;-58
2022/12/21 00:12:04;;;;;;;10.13;8.48;;;9.90;99.90;;;;;;7375311;32;20140;-58
2022/12/21 00:16:12;;;;;;;12.37;9.25;;;9.90;99.90;;;;;;7370249;32;20095;-58
2022/12/21 00:20:14;;;;;;;12.57;10.13;;;9.90;99.90;;;;;;7363710;32;20493;-60
2022/12/21 00:24:17;;;;;;;10.73;8.95;;;9.90;99.90;;;;;;7376916;32;20095;-59
2022/12/21 00:28:19;;;;;;;13.00;11.05;;;9.90;99.90;;;;;;7371523;32;20182;-60
2022/12/21 00:32:20;;;;;;;12.27;10.35;;;9.90;99.90;;;;;;7378301;32;20129;-61
2022/12/21 00:36:23;;;;;;;13.57;10.80;;;9.90;99.90;;;;;;7367545;32;20547;-59
2022/12/21 00:40:25;;;;;;;15.48;10.73;;;9.90;99.90;;;;;;7368211;32;20118;-60
2022/12/21 00:44:27;;;;;;;15.40;12.60;;;9.80;99.90;;;;;;7365165;32;20114;-60
2022/12/21 00:48:30;;;;;;;17.60;12.15;;;9.80;99.90;;;;;;7376600;32;20179;-61
2022/12/21 00:52:32;;;;;;;14.63;12.13;;;9.80;99.90;;;;;;7376337;32;21721;-60
2022/12/21 00:56:33;;;;;;;15.27;12.55;;;9.80;99.90;;;;;;7378900;32;20111;-60
2022/12/21 01:00:35;;;;;;;15.77;12.00;;;9.80;99.90;;;;;;7381403;32;20173;-60
2022/12/21 01:04:37;;;;;;;17.65;13.95;;;9.70;99.90;;;;;;7380123;32;20202;-58
2022/12/21 01:08:38;;;;;;;16.55;12.63;;;9.80;99.90;;;;;;7374709;32;20198;-60
2022/12/21 01:12:40;;;;;;;20.75;13.05;;;9.80;99.90;;;;;;7375775;32;20099;-58
2022/12/21 01:16:42;;;;;;;16.62;11.88;;;9.60;99.90;;;;;;7377755;32;20189;-59
2022/12/21 01:20:46;;;;;;;16.05;12.75;;;9.60;99.90;;;;;;7382699;32;20125;-59
2022/12/21 01:24:48;;;;;;;18.70;13.45;;;9.70;99.90;;;;;;7377134;32;20174;-58
2022/12/21 01:28:50;;;;;;;18.23;12.90;;;9.60;99.90;;;;;;7378688;32;20200;-59
2022/12/21 01:32:52;;;;;;;19.55;14.02;;;9.60;99.90;;;;;;7377734;32;20106;-59
2022/12/21 01:36:53;;;;;;;19.83;13.90;;;9.60;99.90;;;;;;7376667;32;20230;-58
2022/12/21 01:40:55;;;;;;;20.40;14.45;;;9.60;99.90;;;;;;7378650;32;20628;-58
2022/12/21 01:45:16;;;;;;;19.35;14.82;;;9.60;99.90;;;;;;7377865;32;20469;-59
2022/12/21 01:49:20;;;;;;;20.52;14.48;;;9.60;99.90;;;;;;7379507;32;20106;-59
2022/12/21 01:53:30;;;;;;;19.95;13.38;;;9.70;99.90;;;;;;7381213;32;20133;-59
2022/12/21 01:57:34;;;;;;;21.37;14.75;;;9.70;99.90;;;;;;7375467;32;20578;-59
2022/12/21 02:01:36;;;;;;;23.20;14.87;;;9.70;99.90;;;;;;7376677;32;20111;-59
2022/12/21 02:05:57;;;;;;;21.33;14.25;;;9.60;99.90;;;;;;7377079;32;20126;-59
2022/12/21 02:09:59;;;;;;;19.33;13.62;;;9.60;99.90;;;;;;7378475;32;20844;-60
2022/12/21 02:14:01;;;;;;;21.87;15.27;;;9.60;99.90;;;;;;7377270;32;20663;-60
2022/12/21 02:18:27;;;;;;;23.50;14.63;;;9.50;99.90;;;;;;7378995;32;20178;-59
2022/12/21 02:22:48;;;;;;;21.70;14.65;;;9.50;99.90;;;;;;7375165;32;20190;-60
2022/12/21 02:27:20;;;;;;;25.20;15.55;;;9.40;99.90;;;;;;7377398;32;20295;-59
2022/12/21 02:31:32;;;;;;;24.23;16.50;;;9.40;99.90;;;;;;7379170;32;20128;-59
2022/12/21 02:35:59;;;;;;;25.30;16.92;;;9.50;99.90;;;;;;7371410;32;20098;-60
2022/12/21 02:40:20;;;;;;;21.58;15.45;;;9.40;99.90;;;;;;7374200;32;20099;-59
2022/12/21 02:44:42;;;;;;;22.15;16.15;;;9.50;99.90;;;;;;7375662;32;20087;-59
2022/12/21 02:49:10;;;;;;;24.65;15.80;;;9.50;99.90;;;;;;7373787;32;20111;-59
2022/12/21 02:53:20;;;;;;;26.98;17.50;;;9.40;99.90;;;;;;7372463;32;20099;-58
2022/12/21 02:57:34;;;;;;;28.87;17.52;;;9.50;99.90;;;;;;7375598;32;20145;-58
2022/12/21 03:01:53;;;;;;;25.10;15.40;;;9.50;99.90;;;;;;7373338;32;20186;-58
2022/12/21 03:06:04;;;;;;;24.87;16.60;;;9.50;99.90;;;;;;7374584;32;20118;-58
2022/12/21 03:10:22;;;;;;;28.62;17.87;;;9.40;99.90;;;;;;7373696;32;20095;-60
2022/12/21 03:14:43;;;;;;;28.55;18.42;;;9.40;99.90;;;;;;7375580;32;20107;-59
2022/12/21 03:19:09;;;;;;;25.40;16.87;;;9.40;99.90;;;;;;7374167;32;20095;-60
2022/12/21 03:23:22;;;;;;;28.80;18.27;;;9.30;99.90;;;;;;7374117;32;20244;-61
2022/12/21 03:27:34;;;;;;;31.80;18.50;;;9.30;99.90;;;;;;7380587;32;20573;-59
2022/12/21 03:31:41;;;;;;;34.30;19.85;;;9.30;99.90;;;;;;7371484;32;20141;-59
2022/12/21 03:36:03;;;;;;;33.00;18.77;;;9.30;99.90;;;;;;7367162;32;20749;-59
2022/12/21 03:40:19;;;;;;;37.97;21.02;;;9.30;99.90;;;;;;7372573;32;20102;-60
2022/12/21 03:44:28;;;;;;;35.05;20.85;;;9.30;99.90;;;;;;7375683;32;20128;-59
2022/12/21 03:48:42;;;;;;;39.30;20.58;;;9.20;99.90;;;;;;7376697;32;20130;-59
2022/12/21 03:53:01;;;;;;;33.90;19.70;;;9.20;99.90;;;;;;7371614;32;20809;-59
2022/12/21 03:57:05;;;;;;;38.60;21.00;;;9.30;99.90;;;;;;7373911;32;20956;-59
2022/12/21 04:01:19;;;;;;;38.33;21.85;;;9.30;99.90;;;;;;7364027;32;20107;-60
2022/12/21 04:05:24;;;;;;;33.90;21.00;;;9.40;99.90;;;;;;7377476;32;20178;-60
2022/12/21 04:09:26;;;;;;;33.35;20.73;;;9.40;99.90;;;;;;7376606;32;20102;-59
2022/12/21 04:13:28;;;;;;;32.08;20.33;;;9.30;99.90;;;;;;7373285;32;20543;-59
2022/12/21 04:17:29;;;;;;;31.30;19.70;;;9.30;99.90;;;;;;7372906;32;20125;-61
2022/12/21 04:21:31;;;;;;;35.30;21.30;;;9.30;99.90;;;;;;7374844;32;21067;-59
2022/12/21 04:29:54;;;;;;;36.75;20.88;;;9.30;99.90;;;;;;7378448;32;20124;-59
2022/12/21 04:33:55;;;;;;;36.33;20.23;;;9.20;99.90;;;;;;7379341;32;20725;-59
2022/12/21 04:37:57;;;;;;;34.63;21.23;;;9.20;99.90;;;;;;7374682;32;20106;-59
2022/12/21 04:41:59;;;;;;;39.95;21.70;;;9.20;99.90;;;;;;7379634;32;20275;-59
2022/12/21 04:46:03;;;;;;;36.28;21.87;;;9.20;99.90;;;;;;7377754;32;20140;-60
2022/12/21 04:50:06;;;;;;;36.67;20.37;;;9.20;99.90;;;;;;7378607;32;20125;-60
2022/12/21 04:54:07;;;;;;;40.03;20.77;;;9.10;99.90;;;;;;7379391;32;20099;-59
2022/12/21 04:58:09;;;;;;;39.72;20.27;;;9.20;99.90;;;;;;7377693;32;20186;-61
2022/12/21 05:02:11;;;;;;;37.80;19.27;;;9.30;99.90;;;;;;7378663;32;20111;-59
2022/12/21 05:06:15;;;;;;;44.85;21.62;;;9.20;99.90;;;;;;7374813;32;20133;-58
2022/12/21 05:10:17;;;;;;;33.30;18.65;;;9.20;99.90;;;;;;7376162;32;20108;-59
2022/12/21 05:14:18;;;;;;;60.60;19.83;;;9.30;99.90;;;;;;7377067;32;20561;-60
2022/12/21 05:18:20;;;;;;;34.35;18.83;;;9.20;99.90;;;;;;7368804;32;20469;-59
2022/12/21 05:22:22;;;;;;;37.80;18.58;;;9.10;99.90;;;;;;7370741;32;20108;-60
2022/12/21 05:26:24;;;;;;;36.55;17.08;;;9.10;99.90;;;;;;7377879;32;20121;-59
2022/12/21 05:30:25;;;;;;;31.73;16.42;;;9.10;99.90;;;;;;7376710;32;20728;-59
2022/12/21 05:34:27;;;;;;;29.70;15.75;;;9.10;99.90;;;;;;7375240;32;20121;-59
2022/12/21 05:38:29;;;;;;;30.70;16.10;;;9.10;99.90;;;;;;7371477;32;20123;-59
2022/12/21 05:42:31;;;;;;;29.95;15.90;;;9.10;99.90;;;;;;7381036;32;20103;-60
2022/12/21 05:46:33;;;;;;;28.27;15.35;;;9.20;99.90;;;;;;7373051;32;20543;-60
2022/12/21 05:50:38;;;;;;;28.10;15.15;;;9.20;99.90;;;;;;7377457;32;20278;-60
2022/12/21 05:54:40;;;;;;;24.05;14.13;;;9.30;99.90;;;;;;7381340;32;20174;-59
2022/12/21 05:58:41;;;;;;;27.55;14.10;;;9.30;99.90;;;;;;7378942;32;21330;-60
2022/12/21 06:02:43;;;;;;;26.83;14.07;;;9.10;99.90;;;;;;7373967;32;20136;-60
2022/12/21 06:06:46;;;;;;;29.67;16.58;;;9.10;99.90;;;;;;7378487;32;20662;-59
2022/12/21 06:10:48;;;;;;;32.30;17.27;;;9.10;99.90;;;;;;7374628;32;20114;-58
2022/12/21 06:14:49;;;;;;;29.15;17.67;;;9.20;99.90;;;;;;7370613;32;20209;-60
2022/12/21 06:18:52;;;;;;;31.02;17.45;;;9.10;99.90;;;;;;7367796;32;20181;-59
2022/12/21 06:22:54;;;;;;;34.40;19.50;;;9.10;99.90;;;;;;7370975;32;20198;-59
2022/12/21 06:26:55;;;;;;;31.10;19.17;;;9.10;99.90;;;;;;7374157;32;20091;-59
2022/12/21 06:31:09;;;;;;;32.20;19.00;;;9.10;99.90;;;;;;7376555;32;20095;-59
2022/12/21 06:35:10;;;;;;;33.88;18.90;;;9.00;99.90;;;;;;7375185;32;20242;-60
2022/12/21 06:39:12;;;;;;;37.30;21.20;;;9.00;99.90;;;;;;7371106;32;20161;-60
2022/12/21 06:43:14;;;;;;;36.15;20.23;;;9.10;99.90;;;;;;7380187;32;20091;-60
2022/12/21 06:47:16;;;;;;;36.28;20.00;;;9.10;99.90;;;;;;7381039;32;20103;-59
2022/12/21 06:51:20;;;;;;;33.60;19.90;;;9.10;99.90;;;;;;7373865;32;20218;-59
2022/12/21 06:55:23;;;;;;;32.90;20.02;;;9.10;99.90;;;;;;7373686;32;20095;-59
2022/12/21 06:59:24;;;;;;;41.50;27.08;;;9.10;99.90;;;;;;7382256;32;20270;-59
2022/12/21 07:07:25;;;;;;;38.75;20.05;;;9.10;99.90;;;;;;7417506;31;20094;-60
2022/12/21 07:11:29;;;;;;;34.58;20.08;;;9.20;99.90;;;;;;7397598;32;20132;-60
2022/12/21 07:15:35;;;;;;;33.08;19.48;;;9.10;99.90;;;;;;7399437;32;20190;-60
2022/12/21 07:19:36;;;;;;;33.70;19.27;;;9.00;99.90;;;;;;7401841;32;20298;-60
2022/12/21 07:23:40;;;;;;;29.55;18.17;;;9.10;99.90;;;;;;7394101;32;20177;-61
2022/12/21 07:27:42;;;;;;;29.80;17.27;;;9.10;99.90;;;;;;7394432;32;20153;-60
2022/12/21 07:31:43;;;;;;;23.33;15.60;;;9.10;99.90;;;;;;7391258;32;20212;-60
2022/12/21 07:35:46;;;;;;;22.40;14.40;;;9.20;99.90;;;;;;7401701;32;20175;-62
2022/12/21 07:39:48;;;;;;;26.95;16.60;;;9.00;99.90;;;;;;7397411;32;20672;-62
2022/12/21 07:43:49;;;;;;;24.20;15.00;;;9.10;99.90;;;;;;7382772;32;20115;-62
2022/12/21 07:47:54;;;;;;;23.05;14.23;;;9.10;99.90;;;;;;7396233;32;20633;-63
2022/12/21 07:51:55;;;;;;;20.73;14.30;;;9.20;99.90;;;;;;7397311;32;20125;-62
2022/12/21 07:56:07;;;;;;;21.30;13.43;;;9.20;99.90;;;;;;7387777;32;20178;-61
2022/12/21 08:00:09;;;;;;;21.77;13.68;;;9.30;99.90;;;;;;7391848;32;20683;-61
2022/12/21 08:04:10;;;;;;;20.17;13.88;;;9.20;99.90;;;;;;7387562;32;20129;-61
2022/12/21 08:08:12;;;;;;;25.37;14.63;;;9.30;99.90;;;;;;7391473;32;20210;-61
2022/12/21 08:12:14;;;;;;;25.42;16.08;;;9.30;99.90;;;;;;7387189;32;20271;-61
2022/12/21 08:16:19;;;;;;;23.55;15.13;;;9.30;99.90;;;;;;7381171;32;20124;-63
2022/12/21 08:20:21;;;;;;;26.55;14.45;;;9.40;99.90;;;;;;7378842;32;20217;-61
2022/12/21 08:24:23;;;;;;;70.40;14.20;;;9.40;99.90;;;;;;7381468;32;20221;-61
2022/12/21 08:28:25;;;;;;;44.65;12.77;;;9.30;99.90;;;;;;7378852;32;20643;-61
2022/12/21 08:32:26;;;;;;;36.97;11.55;;;9.20;99.90;;;;;;7368893;32;20107;-61
2022/12/21 08:36:28;;;;;;;66.70;12.05;;;9.10;99.90;;;;;;7368151;32;20647;-60
2022/12/21 08:40:31;;;;;;;43.85;12.75;;;9.10;99.90;;;;;;7369445;32;20262;-61
2022/12/21 08:44:32;;;;;;;31.37;12.57;;;9.20;99.90;;;;;;7377425;32;20114;-60
2022/12/21 08:48:35;;;;;;;30.50;14.32;;;9.20;99.90;;;;;;7374299;32;20264;-60
2022/12/21 08:52:37;;;;;;;48.45;15.85;;;9.10;99.90;;;;;;7376879;32;20697;-62
2022/12/21 08:56:38;;;;;;;36.33;14.15;;;9.10;99.90;;;;;;7366760;32;20107;-60
2022/12/21 09:00:42;;;;;;;32.55;13.60;;;9.20;99.90;;;;;;7363747;32;20178;-60
2022/12/21 09:04:44;;;;;;;35.90;13.60;;;9.20;99.90;;;;;;7366803;32;20234;-61
2022/12/21 09:08:45;;;;;;;43.90;16.73;;;9.10;99.90;;;;;;7367098;32;20191;-61
2022/12/21 09:12:47;;;;;;;45.38;16.25;;;9.30;99.90;;;;;;7366423;32;20278;-60
2022/12/21 09:16:49;;;;;;;47.42;17.77;;;9.20;99.90;;;;;;7368398;32;20168;-62
2022/12/21 09:20:51;;;;;;;42.33;17.83;;;9.20;99.90;;;;;;7377119;32;20107;-61
2022/12/21 09:24:54;;;;;;;42.53;18.40;;;9.20;99.90;;;;;;7373326;32;20186;-62
2022/12/21 09:28:56;;;;;;;38.22;16.77;;;9.30;99.90;;;;;;7377472;32;20186;-60
2022/12/21 09:32:57;;;;;;;37.38;17.42;;;9.20;99.90;;;;;;7378718;32;20133;-61
2022/12/21 09:36:59;;;;;;;33.72;16.00;;;9.20;99.90;;;;;;7375222;32;20234;-62
2022/12/21 09:41:36;;;;;;;35.92;16.83;;;9.10;99.90;;;;;;7373436;32;20226;-60
2022/12/21 09:45:53;;;;;;;26.05;12.90;;;9.10;99.90;;;;;;7377283;32;20114;-60
2022/12/21 09:49:59;;;;;;;27.60;13.88;;;9.10;99.90;;;;;;7372690;32;20107;-60
2022/12/21 09:54:11;;;;;;;25.98;13.93;;;9.10;99.90;;;;;;7379581;32;20492;-61
2022/12/21 09:58:18;;;;;;;27.95;15.05;;;9.20;99.90;;;;;;7369839;32;20193;-62
2022/12/21 10:02:33;;;;;;;;;;;9.40;99.90;;;;;;7364955;32;20674;-60
2022/12/21 10:06:57;;;;;;;24.35;13.77;;;9.40;99.90;;;;;;7379256;32;20013;-60
2022/12/21 10:11:20;;;;;;;20.83;10.95;;;9.40;99.90;;;;;;7374802;32;20124;-61
2022/12/21 10:15:28;;;;;;;24.08;11.48;;;9.40;99.90;;;;;;7370168;32;20154;-60
2022/12/21 10:20:23;;;;;;;22.87;11.77;;;9.40;99.90;;;;;;7382913;32;20570;-61
2022/12/21 10:24:35;;;;;;;22.52;12.02;;;9.30;99.90;;;;;;7267985;32;20899;-59
2022/12/21 10:28:43;;;;;;;23.87;11.98;;;9.20;99.90;;;;;;7331613;32;20506;-60
2022/12/21 10:32:48;;;;;;;22.35;12.50;;;9.20;99.90;;;;;;7377265;32;20107;-60
2022/12/21 10:36:58;;;;;;;21.70;11.65;;;9.30;99.90;;;;;;7379141;32;20168;-60
2022/12/21 10:41:06;;;;;;;21.75;12.43;;;9.30;99.90;;;;;;7383462;32;20178;-59
2022/12/21 10:45:16;;;;;;;23.85;13.07;;;9.30;99.90;;;;;;7378422;32;20452;-60
2022/12/21 10:49:36;;;;;;;21.37;11.20;;;9.20;99.90;;;;;;7373483;32;20174;-61
2022/12/21 10:53:37;;;;;;;19.48;10.93;;;9.10;99.90;;;;;;7381121;32;20178;-59
2022/12/21 10:57:39;;;;;;;19.95;11.20;;;9.10;99.90;;;;;;7381174;32;20121;-62
2022/12/21 11:01:41;;;;;;;20.02;11.20;;;9.10;99.90;;;;;;7376496;32;20134;-60
2022/12/21 11:05:43;;;;;;;27.05;13.05;;;9.10;99.90;;;;;;7369482;32;20264;-59
2022/12/21 11:09:55;;;;;;;26.33;13.70;;;9.20;99.90;;;;;;7371330;32;20106;-59
2022/12/21 11:14:17;;;;;;;26.60;14.00;;;9.20;99.90;;;;;;7372444;32;20134;-59
2022/12/21 11:18:27;;;;;;;25.55;13.57;;;9.20;99.90;;;;;;7376410;32;20788;-62
2022/12/21 11:22:29;;;;;;;23.23;12.32;;;9.30;99.90;;;;;;7368850;32;20518;-60
2022/12/21 11:26:59;;;;;;;23.90;11.20;;;9.30;99.90;;;;;;7379067;32;20186;-61
2022/12/21 11:31:05;;;;;;;20.77;10.35;;;9.30;99.90;;;;;;7373779;32;20130;-61
2022/12/21 11:35:18;;;;;;;14.43;8.87;;;9.40;99.90;;;;;;7382009;32;20719;-62
2022/12/21 11:39:23;;;;;;;17.40;8.95;;;9.40;99.90;;;;;;7366921;32;20222;-61
2022/12/21 11:43:25;;;;;;;17.55;8.18;;;9.40;99.90;;;;;;7368720;32;20177;-60
2022/12/21 11:47:55;;;;;;;19.58;8.40;;;9.40;99.90;;;;;;7376730;32;20218;-60
2022/12/21 11:52:26;;;;;;;21.10;9.02;;;9.40;99.90;;;;;;7370565;32;20535;-60
2022/12/21 11:56:35;;;;;;;14.30;7.53;;;9.40;99.90;;;;;;7356862;32;20115;-62
2022/12/21 12:01:04;;;;;;;17.33;8.20;;;9.30;99.90;;;;;;7386962;32;20224;-62
2022/12/21 12:05:40;;;;;;;16.52;8.82;;;9.10;99.90;;;;;;7377600;32;20213;-61
2022/12/21 12:10:07;;;;;;;18.73;8.63;;;9.10;99.90;;;;;;7375950;32;20140;-61
2022/12/21 12:14:20;;;;;;;20.30;8.10;;;9.20;99.90;;;;;;7369786;32;20128;-61
2022/12/21 12:18:25;;;;;;;16.85;7.60;;;9.20;99.90;;;;;;7376092;32;20165;-61
2022/12/21 12:22:48;;;;;;;17.58;7.68;;;9.20;99.90;;;;;;7369556;32;20147;-61
2022/12/21 12:27:01;;;;;;;16.15;7.40;;;9.10;99.90;;;;;;7375771;32;20123;-63
2022/12/21 12:31:33;;;;;;;11.90;5.37;;;9.10;99.90;;;;;;7367059;32;20232;-60
2022/12/21 12:35:56;;;;;;;15.48;5.35;;;9.10;99.90;;;;;;7378738;32;20123;-61
2022/12/21 12:40:03;;;;;;;12.68;4.60;;;9.10;99.90;;;;;;7373184;32;20115;-60
2022/12/21 12:44:28;;;;;;;13.00;6.20;;;9.10;99.90;;;;;;7375217;32;20115;-61
2022/12/21 12:48:42;;;;;;;18.27;5.20;;;9.10;99.90;;;;;;7370066;32;20462;-60
2022/12/21 12:53:16;;;;;;;12.35;4.57;;;9.00;99.90;;;;;;7371358;32;20141;-60
2022/12/21 12:57:44;;;;;;;12.37;5.50;;;9.00;99.90;;;;;;7349251;32;20111;-61
2022/12/21 13:02:03;;;;;;;14.10;5.87;;;9.00;99.90;;;;;;7373883;32;20493;-60
2022/12/21 13:06:42;;;;;;;14.38;5.53;;;9.00;99.90;;;;;;7376691;32;20561;-60
2022/12/21 13:11:08;;;;;;;15.82;4.75;;;9.00;99.90;;;;;;7374093;32;20190;-60
2022/12/21 13:15:35;;;;;;;12.82;4.20;;;8.90;99.90;;;;;;7370960;32;20506;-59
2022/12/21 13:19:39;;;;;;;12.77;3.37;;;8.90;99.90;;;;;;7345570;32;20641;-60
2022/12/21 13:23:58;;;;;;;13.98;2.95;;;8.90;99.90;;;;;;7373286;32;20494;-62
2022/12/21 13:28:01;;;;;;;7.85;2.60;;;8.90;99.90;;;;;;7370341;32;20154;-60
2022/12/21 13:32:13;;;;;;;11.85;3.10;;;8.90;99.90;;;;;;7357544;32;20202;-60
2022/12/21 13:36:18;;;;;;;8.80;3.00;;;8.90;99.90;;;;;;7372765;32;20781;-61
2022/12/21 13:40:43;;;;;;;12.07;2.70;;;8.90;99.90;;;;;;7364840;32;20103;-60
2022/12/21 13:45:23;;;;;;;7.78;2.60;;;8.90;99.90;;;;;;7371245;32;20174;-62
2022/12/21 13:49:53;;;;;;;8.40;3.00;;;8.90;99.90;;;;;;7362388;32;20135;-61
2022/12/21 13:54:21;;;;;;;8.23;2.60;;;8.80;99.90;;;;;;7364754;32;20229;-60
2022/12/21 13:58:59;;;;;;;9.75;2.87;;;8.90;99.90;;;;;;7367690;32;20905;-60
2022/12/21 14:03:14;;;;;;;7.80;3.55;;;8.80;99.90;;;;;;7352663;32;20194;-61
2022/12/21 14:07:51;;;;;;;11.43;3.42;;;8.90;99.90;;;;;;7378682;32;20107;-61
2022/12/21 14:12:32;;;;;;;8.55;2.72;;;8.80;99.90;;;;;;7377533;32;20824;-61
2022/12/21 14:16:38;;;;;;;11.45;3.55;;;8.80;99.90;;;;;;7366641;32;20191;-60
2022/12/21 14:20:41;;;;;;;11.68;3.33;;;8.70;99.90;;;;;;7363122;32;20181;-61
2022/12/21 14:24:43;;;;;;;10.60;3.22;;;8.70;99.90;;;;;;7372140;32;20188;-61
2022/12/21 14:28:46;;;;;;;11.82;3.30;;;8.60;99.90;;;;;;7375554;32;20111;-61
2022/12/21 14:32:53;;;;;;;11.23;3.75;;;8.60;99.90;;;;;;7377969;32;20116;-61
2022/12/21 14:37:10;;;;;;;9.68;4.07;;;8.60;99.90;;;;;;7373233;32;20111;-62
2022/12/21 14:41:12;;;;;;;7.27;3.27;;;8.50;99.90;;;;;;7375435;32;20099;-64
2022/12/21 14:45:13;;;;;;;10.02;3.92;;;8.50;99.90;;;;;;7373090;32;20277;-61
2022/12/21 14:49:28;;;;;;;7.70;3.70;;;8.60;99.90;;;;;;7370315;32;20270;-62
2022/12/21 14:53:33;;;;;;;9.80;4.00;;;8.50;99.90;;;;;;7368700;32;20700;-62
2022/12/21 14:57:43;;;;;;;7.78;3.80;;;8.40;99.90;;;;;;7372888;32;20599;-61
2022/12/21 15:01:59;;;;;;;8.75;3.37;;;8.40;99.90;;;;;;7376232;32;20872;-61
2022/12/21 15:06:05;;;;;;;7.30;3.62;;;8.50;99.90;;;;;;7358193;32;20107;-62
2022/12/21 15:10:22;;;;;;;7.28;3.55;;;8.40;99.90;;;;;;7366496;32;20099;-61
2022/12/21 15:14:52;;;;;;;6.35;3.17;;;8.40;99.90;;;;;;7365677;32;20667;-60
2022/12/21 15:19:00;;;;;;;7.03;3.12;;;8.40;99.90;;;;;;7368185;32;20227;-61
2022/12/21 15:23:02;;;;;;;7.55;2.90;;;8.40;99.90;;;;;;7364657;32;20129;-61
2022/12/21 15:27:18;;;;;;;6.82;2.58;;;8.40;99.90;;;;;;7372081;32;20216;-62
2022/12/21 15:31:25;;;;;;;7.87;3.50;;;8.30;99.90;;;;;;7367950;32;20512;-60
2022/12/21 15:35:38;;;;;;;7.57;2.80;;;8.20;99.90;;;;;;7369576;32;20107;-60
2022/12/21 15:39:42;;;;;;;8.75;3.50;;;8.10;99.90;;;;;;7372049;32;20587;-60
2022/12/21 15:44:05;;;;;;;5.05;3.12;;;8.00;99.90;;;;;;7368938;32;20225;-59
2022/12/21 15:48:48;;;;;;;9.23;3.10;;;7.90;99.90;;;;;;7375594;32;20107;-59
2022/12/21 15:53:02;;;;;;;9.82;2.90;;;7.90;99.90;;;;;;7337643;32;20106;-59
2022/12/21 15:57:04;;;;;;;8.35;2.83;;;7.90;99.90;;;;;;7369620;32;20208;-60
2022/12/21 16:01:23;;;;;;;9.30;3.05;;;7.70;99.90;;;;;;7373317;32;20131;-60
2022/12/21 16:05:28;;;;;;;5.93;2.70;;;7.50;99.90;;;;;;7375511;32;20267;-60
2022/12/21 16:09:30;;;;;;;5.12;2.50;;;7.50;99.90;;;;;;7369718;32;20351;-61
2022/12/21 16:13:38;;;;;;;10.25;2.55;;;7.50;99.90;;;;;;7371443;32;20453;-60
2022/12/21 16:17:40;;;;;;;6.22;2.47;;;7.40;99.90;;;;;;7377131;32;20095;-59
2022/12/21 16:21:44;;;;;;;6.72;2.53;;;7.40;99.90;;;;;;7378941;32;20111;-59
2022/12/21 16:25:48;;;;;;;5.87;2.50;;;7.30;99.90;;;;;;7376345;32;20103;-59
2022/12/21 16:29:55;;;;;;;7.15;2.72;;;7.40;99.90;;;;;;7374275;32;20129;-59
2022/12/21 16:34:02;;;;;;;4.05;2.15;;;7.40;99.90;;;;;;7373605;32;20125;-59
2022/12/21 16:38:04;;;;;;;6.85;2.15;;;7.40;99.90;;;;;;7380227;32;20182;-59
2022/12/21 16:42:11;;;;;;;2.47;1.58;;;7.40;99.90;;;;;;7382464;32;20103;-60
2022/12/21 16:46:14;;;;;;;2.72;1.35;;;7.40;99.90;;;;;;7380306;32;20129;-60
2022/12/21 16:50:42;;;;;;;4.72;2.67;;;7.40;99.90;;;;;;7375925;32;20122;-60
2022/12/21 16:54:45;;;;;;;5.75;1.70;;;7.40;99.90;;;;;;7370287;32;20280;-59
2022/12/21 16:58:53;;;;;;;3.37;1.67;;;7.40;99.90;;;;;;7363128;32;20095;-60
2022/12/21 17:03:00;;;;;;;4.05;1.67;;;7.30;99.90;;;;;;7366008;32;20195;-60
2022/12/21 17:07:07;;;;;;;6.18;2.17;;;7.30;99.90;;;;;;7367945;32;20107;-60
2022/12/21 17:11:19;;;;;;;6.18;2.20;;;7.20;99.90;;;;;;7369263;32;20110;-63
2022/12/21 17:15:36;;;;;;;5.10;2.35;;;7.20;99.90;;;;;;7360654;32;20740;-60
2022/12/21 17:19:56;;;;;;;4.77;2.03;;;7.10;99.90;;;;;;7370196;32;20182;-59
2022/12/21 17:24:22;;;;;;;5.62;2.00;;;7.20;99.90;;;;;;7364204;32;20144;-61
2022/12/21 17:28:31;;;;;;;7.90;2.10;;;7.20;99.90;;;;;;7375498;32;20186;-61
2022/12/21 17:32:33;;;;;;;5.70;2.47;;;7.20;99.90;;;;;;7367922;32;20157;-60
2022/12/21 17:36:35;;;;;;;6.07;2.40;;;7.30;99.90;;;;;;7369518;32;20186;-60
2022/12/21 17:40:37;;;;;;;9.25;2.92;;;7.40;99.90;;;;;;7372487;32;20257;-60
2022/12/21 17:44:39;;;;;;;4.90;2.87;;;7.50;99.90;;;;;;7369906;32;20256;-60
2022/12/21 17:48:44;;;;;;;6.85;3.33;;;7.50;99.90;;;;;;7365886;32;20178;-61
2022/12/21 17:52:46;;;;;;;5.10;3.10;;;7.60;99.90;;;;;;7371848;32;20137;-61
2022/12/21 17:56:48;;;;;;;5.78;3.55;;;7.70;99.90;;;;;;7370590;32;20132;-60
2022/12/21 18:00:52;;;;;;;5.68;3.28;;;7.60;99.90;;;;;;7363210;32;20156;-60
2022/12/21 18:04:56;;;;;;;9.13;3.50;;;7.70;99.90;;;;;;7370216;32;20240;-59
2022/12/21 18:08:58;;;;;;;7.95;3.67;;;7.80;99.90;;;;;;7368692;32;20108;-60
2022/12/21 18:13:00;;;;;;;6.57;3.03;;;7.90;99.90;;;;;;7373204;32;20111;-59
2022/12/21 18:17:02;;;;;;;5.37;2.90;;;7.80;99.90;;;;;;7364383;32;20140;-60
2022/12/21 18:21:05;;;;;;;6.87;3.47;;;7.90;99.90;;;;;;7366859;32;20229;-59
2022/12/21 18:25:15;;;;;;;7.53;3.28;;;7.90;99.90;;;;;;7373975;32;20103;-59
2022/12/21 18:29:17;;;;;;;6.43;3.00;;;7.90;99.90;;;;;;7366945;32;20110;-60
2022/12/21 18:33:20;;;;;;;7.30;3.00;;;7.90;99.90;;;;;;7370894;32;20133;-60
2022/12/21 18:37:22;;;;;;;6.65;3.28;;;8.00;99.90;;;;;;7374657;32;20129;-60
2022/12/21 18:41:26;;;;;;;4.78;3.28;;;7.80;99.90;;;;;;7361830;32;20240;-60
2022/12/21 18:45:28;;;;;;;7.18;3.37;;;7.80;99.90;;;;;;7366086;32;20507;-65
2022/12/21 18:49:30;;;;;;;5.75;2.83;;;7.80;99.90;;;;;;7371070;32;20125;-64
2022/12/21 18:53:32;;;;;;;12.07;3.58;;;7.90;99.90;;;;;;7363463;32;20103;-61
2022/12/21 18:57:34;;;;;;;6.80;3.17;;;7.80;99.90;;;;;;7363777;32;20230;-60
2022/12/21 19:01:36;;;;;;;5.65;3.20;;;7.80;99.90;;;;;;7362910;32;20248;-62
2022/12/21 19:05:38;;;;;;;5.47;2.97;;;7.70;99.90;;;;;;7362544;32;20263;-60
2022/12/21 19:09:44;;;;;;;7.53;3.45;;;7.80;99.90;;;;;;7372126;32;20178;-60
2022/12/21 19:13:46;;;;;;;6.85;3.25;;;7.80;99.90;;;;;;7376062;32;20504;-60
2022/12/21 19:17:49;;;;;;;6.50;3.47;;;7.80;99.90;;;;;;7367951;32;20103;-59
2022/12/21 19:21:53;;;;;;;10.43;3.60;;;7.80;99.90;;;;;;7355135;32;20817;-61
2022/12/21 19:25:55;;;;;;;6.07;3.05;;;7.80;99.90;;;;;;7365612;32;21097;-60
2022/12/21 19:29:57;;;;;;;6.10;3.70;;;7.80;99.90;;;;;;7356926;32;20197;-61
2022/12/21 19:33:59;;;;;;;10.23;3.12;;;7.70;99.90;;;;;;7357286;32;20294;-61
2022/12/21 19:38:01;;;;;;;8.50;3.60;;;7.80;99.90;;;;;;7360718;32;20225;-60
2022/12/21 19:42:15;;;;;;;6.70;2.92;;;7.70;99.90;;;;;;7357274;32;20633;-60
2022/12/21 19:46:25;;;;;;;8.18;2.80;;;7.70;99.90;;;;;;7358973;32;20190;-60
2022/12/21 19:50:27;;;;;;;6.82;3.20;;;7.70;99.90;;;;;;7365224;32;20221;-60
2022/12/21 19:54:28;;;;;;;8.80;2.60;;;7.80;99.90;;;;;;7355128;32;20174;-60
2022/12/21 19:58:37;;;;;;;7.47;2.47;;;7.80;99.90;;;;;;7360964;32;20131;-60
2022/12/21 20:02:42;;;;;;;5.28;2.72;;;7.80;99.90;;;;;;7367219;32;20123;-60
2022/12/21 20:06:45;;;;;;;4.32;2.90;;;7.80;99.90;;;;;;7374047;32;20573;-60
2022/12/21 20:10:50;;;;;;;5.87;2.92;;;7.80;99.90;;;;;;7350942;32;20187;-60
2022/12/21 20:14:52;;;;;;;7.18;3.40;;;7.90;99.90;;;;;;7371015;32;20122;-61
2022/12/21 20:18:53;;;;;;;8.05;3.25;;;7.90;99.90;;;;;;7382934;32;20142;-60
2022/12/21 20:22:55;;;;;;;11.02;3.65;;;7.90;99.90;;;;;;7379035;32;20717;-60
2022/12/21 20:26:59;;;;;;;5.50;3.05;;;7.90;99.90;;;;;;7375349;32;20163;-59
2022/12/21 20:31:01;;;;;;;7.37;2.72;;;7.90;99.90;;;;;;7380242;32;20119;-59
2022/12/21 20:35:03;;;;;;;6.80;3.20;;;8.00;99.90;;;;;;7366630;32;20183;-59
2022/12/21 20:39:25;;;;;;;7.93;3.40;;;8.00;99.90;;;;;;7373057;32;20692;-60
2022/12/21 20:43:52;;;;;;;5.35;3.35;;;8.00;99.90;;;;;;7361551;32;20338;-60
2022/12/21 20:47:54;;;;;;;5.85;3.60;;;8.10;99.90;;;;;;7364949;32;20914;-60
2022/12/21 20:51:56;;;;;;;4.85;3.47;;;8.00;99.90;;;;;;7360519;32;20269;-62
2022/12/21 21:00:23;;;;;;;6.22;4.28;;;8.10;99.90;;;;;;7362857;32;20183;-61
2022/12/21 21:04:30;;;;;;;6.53;4.37;;;8.10;99.90;;;;;;7363230;32;20253;-61
2022/12/21 21:08:32;;;;;;;11.00;4.90;;;8.10;99.90;;;;;;7369413;32;20127;-61
2022/12/21 21:12:34;;;;;;;8.30;5.37;;;8.10;99.90;;;;;;7352500;32;20625;-61
2022/12/21 21:16:37;;;;;;;8.07;4.60;;;8.10;99.90;;;;;;7358882;32;20129;-61
2022/12/21 21:24:59;;;;;;;6.72;5.10;;;8.10;99.90;;;;;;7361820;32;20214;-61
2022/12/21 21:29:01;;;;;;;8.88;5.05;;;8.10;99.90;;;;;;7370217;32;20181;-60
2022/12/21 21:33:02;;;;;;;8.02;5.40;;;8.10;99.90;;;;;;7360254;32;20641;-61
2022/12/21 21:37:04;;;;;;;8.20;5.15;;;8.10;99.90;;;;;;7354616;32;20620;-61
2022/12/21 21:41:40;;;;;;;8.57;5.47;;;8.20;99.90;;;;;;7369471;32;20123;-62
2022/12/21 21:45:42;;;;;;;6.35;4.57;;;8.20;99.90;;;;;;7368904;32;20179;-61
2022/12/21 21:49:44;;;;;;;7.70;4.80;;;8.20;99.90;;;;;;7376730;32;20200;-61